sensor_id;sensor_type;location;lat;lon;timestamp;temperature;humidity
21772;DHT22;11047;47.904;8.110;2023-06-22T00:02:19;15.80;99.90
21772;DHT22;11047;47.904;8.110;2023-06-22T00:04:48;15.60;99.90
21772;DHT22;11047;47.904;8.110;2023-06-22T00:07:15;15.60;99.90
21772;DHT22;11047;47.904;8.110;2023-06-22T00:09:44;15.70;99.90
21772;DHT22;11047;47.904;8.110;2023-06-22T00:12:11;15.60;99.90
21772;DHT22;11047;47.904;8.110;2023-06-22T00:14:37;15.50;99.90
21772;DHT22;11047;47.904;8.110;2023-06-22T00:17:04;15.50;99.90
21772;DHT22;11047;47.904;8.110;2023-06-22T00:19:31;15.50;99.90
21772;DHT22;11047;47.904;8.110;2023-06-22T00:22:00;15.50;99.90
21772;DHT22;11047;47.904;8.110;2023-06-22T00:24:29;15.50;99.90
21772;DHT22;11047;47.904;8.110;2023-06-22T00:26:57;15.30;99.90
21772;DHT22;11047;47.904;8.110;2023-06-22T00:29:24;15.30;99.90
21772;DHT22;11047;47.904;8.110;2023-06-22T00:31:51;15.30;99.90
21772;DHT22;11047;47.904;8.110;2023-06-22T00:34:18;15.40;99.90
21772;DHT22;11047;47.904;8.110;2023-06-22T00:36:45;15.30;99.90
21772;DHT22;11047;47.904;8.110;2023-06-22T00:39:13;15.20;99.90
21772;DHT22;11047;47.904;8.110;2023-06-22T00:41:39;15.30;99.90
21772;DHT22;11047;47.904;8.110;2023-06-22T00:44:08;15.40;99.90
21772;DHT22;11047;47.904;8.110;2023-06-22T00:46:35;15.40;99.90
21772;DHT22;11047;47.904;8.110;2023-06-22T00:49:02;15.50;99.90
21772;DHT22;11047;47.904;8.110;2023-06-22T00:51:31;15.50;99.90
21772;DHT22;11047;47.904;8.110;2023-06-22T00:53:58;15.40;99.90
21772;DHT22;11047;47.904;8.110;2023-06-22T00:56:25;15.40;99.90
21772;DHT22;11047;47.904;8.110;2023-06-22T00:58:55;15.30;99.90
21772;DHT22;11047;47.904;8.110;2023-06-22T01:01:26;15.10;99.90
21772;DHT22;11047;47.904;8.110;2023-06-22T01:03:53;14.90;99.90
21772;DHT22;11047;47.904;8.110;2023-06-22T01:06:28;15.00;99.90
21772;DHT22;11047;47.904;8.110;2023-06-22T01:09:02;14.90;99.90
21772;DHT22;11047;47.904;8.110;2023-06-22T01:11:35;15.00;99.90
21772;DHT22;11047;47.904;8.110;2023-06-22T01:14:09;14.90;99.90
21772;DHT22;11047;47.904;8.110;2023-06-22T01:16:41;14.80;99.90
21772;DHT22;11047;47.904;8.110;2023-06-22T01:19:26;14.80;99.90
21772;DHT22;11047;47.904;8.110;2023-06-22T01:21:55;14.90;99.90
21772;DHT22;11047;47.904;8.110;2023-06-22T01:24:26;14.90;99.90
21772;DHT22;11047;47.904;8.110;2023-06-22T01:27:00;15.00;99.90
21772;DHT22;11047;47.904;8.110;2023-06-22T01:29:33;14.90;99.90
21772;DHT22;11047;47.904;8.110;2023-06-22T01:32:05;14.90;99.90
21772;DHT22;11047;47.904;8.110;2023-06-22T01:34:33;14.70;99.90
21772;DHT22;11047;47.904;8.110;2023-06-22T01:37:01;14.60;99.90
21772;DHT22;11047;47.904;8.110;2023-06-22T01:39:29;14.60;99.90
21772;DHT22;11047;47.904;8.110;2023-06-22T01:41:57;14.70;99.90
21772;DHT22;11047;47.904;8.110;2023-06-22T01:44:25;14.70;99.90
21772;DHT22;11047;47.904;8.110;2023-06-22T01:46:54;14.70;99.90
21772;DHT22;11047;47.904;8.110;2023-06-22T01:49:21;14.80;99.90
21772;DHT22;11047;47.904;8.110;2023-06-22T01:51:48;14.60;99.90
21772;DHT22;11047;47.904;8.110;2023-06-22T01:54:15;14.60;99.90
21772;DHT22;11047;47.904;8.110;2023-06-22T01:56:42;14.70;99.90
21772;DHT22;11047;47.904;8.110;2023-06-22T01:59:14;14.80;99.90
21772;DHT22;11047;47.904;8.110;2023-06-22T02:01:43;14.80;99.90
21772;DHT22;11047;47.904;8.110;2023-06-22T02:04:17;14.80;99.90
21772;DHT22;11047;47.904;8.110;2023-06-22T02:06:47;14.80;99.90
21772;DHT22;11047;47.904;8.110;2023-06-22T02:09:19;14.80;99.90
21772;DHT22;11047;47.904;8.110;2023-06-22T02:11:47;14.60;99.90
21772;DHT22;11047;47.904;8.110;2023-06-22T02:14:18;14.40;99.90
21772;DHT22;11047;47.904;8.110;2023-06-22T02:16:46;14.30;99.90
21772;DHT22;11047;47.904;8.110;2023-06-22T02:19:14;14.20;99.90
21772;DHT22;11047;47.904;8.110;2023-06-22T02:21:44;14.20;99.90
21772;DHT22;11047;47.904;8.110;2023-06-22T02:24:11;14.40;99.90
21772;DHT22;11047;47.904;8.110;2023-06-22T02:26:38;14.40;99.90
21772;DHT22;11047;47.904;8.110;2023-06-22T02:29:07;14.30;99.90
21772;DHT22;11047;47.904;8.110;2023-06-22T02:31:34;14.20;99.90
21772;DHT22;11047;47.904;8.110;2023-06-22T02:34:01;14.20;99.90
21772;DHT22;11047;47.904;8.110;2023-06-22T02:36:30;14.20;99.90
21772;DHT22;11047;47.904;8.110;2023-06-22T02:38:58;14.30;99.90
21772;DHT22;11047;47.904;8.110;2023-06-22T02:41:26;14.30;99.90
21772;DHT22;11047;47.904;8.110;2023-06-22T02:43:53;14.40;99.90
21772;DHT22;11047;47.904;8.110;2023-06-22T02:46:20;14.50;99.90
21772;DHT22;11047;47.904;8.110;2023-06-22T02:48:47;14.60;99.90
21772;DHT22;11047;47.904;8.110;2023-06-22T02:51:48;14.50;99.90
21772;DHT22;11047;47.904;8.110;2023-06-22T02:54:15;14.30;99.90
21772;DHT22;11047;47.904;8.110;2023-06-22T02:56:42;14.20;99.90
21772;DHT22;11047;47.904;8.110;2023-06-22T02:59:10;14.20;99.90
21772;DHT22;11047;47.904;8.110;2023-06-22T03:01:37;14.10;99.90
21772;DHT22;11047;47.904;8.110;2023-06-22T03:04:05;14.00;99.90
21772;DHT22;11047;47.904;8.110;2023-06-22T03:06:33;14.00;99.90
21772;DHT22;11047;47.904;8.110;2023-06-22T03:09:03;14.00;99.90
21772;DHT22;11047;47.904;8.110;2023-06-22T03:11:30;13.90;99.90
21772;DHT22;11047;47.904;8.110;2023-06-22T03:13:57;13.80;99.90
21772;DHT22;11047;47.904;8.110;2023-06-22T03:16:24;13.80;99.90
21772;DHT22;11047;47.904;8.110;2023-06-22T03:18:51;13.90;99.90
21772;DHT22;11047;47.904;8.110;2023-06-22T03:21:19;13.90;99.90
21772;DHT22;11047;47.904;8.110;2023-06-22T03:23:46;14.00;99.90
21772;DHT22;11047;47.904;8.110;2023-06-22T03:26:16;14.00;99.90
21772;DHT22;11047;47.904;8.110;2023-06-22T03:28:43;13.90;99.90
21772;DHT22;11047;47.904;8.110;2023-06-22T03:31:10;13.90;99.90
21772;DHT22;11047;47.904;8.110;2023-06-22T03:33:37;13.70;99.90
21772;DHT22;11047;47.904;8.110;2023-06-22T03:36:04;13.80;99.90
21772;DHT22;11047;47.904;8.110;2023-06-22T03:38:31;13.90;99.90
21772;DHT22;11047;47.904;8.110;2023-06-22T03:40:58;14.00;99.90
21772;DHT22;11047;47.904;8.110;2023-06-22T03:43:27;14.00;99.90
21772;DHT22;11047;47.904;8.110;2023-06-22T03:45:54;14.00;99.90
21772;DHT22;11047;47.904;8.110;2023-06-22T03:48:20;14.00;99.90
21772;DHT22;11047;47.904;8.110;2023-06-22T03:50:47;14.10;99.90
21772;DHT22;11047;47.904;8.110;2023-06-22T03:53:14;14.10;99.90
21772;DHT22;11047;47.904;8.110;2023-06-22T03:55:48;14.20;99.90
21772;DHT22;11047;47.904;8.110;2023-06-22T03:58:16;14.20;99.90
21772;DHT22;11047;47.904;8.110;2023-06-22T04:00:46;14.30;99.90
21772;DHT22;11047;47.904;8.110;2023-06-22T04:03:13;14.20;99.90
21772;DHT22;11047;47.904;8.110;2023-06-22T04:05:40;14.30;99.90
21772;DHT22;11047;47.904;8.110;2023-06-22T04:08:07;14.40;99.90
21772;DHT22;11047;47.904;8.110;2023-06-22T04:10:34;14.40;99.90
21772;DHT22;11047;47.904;8.110;2023-06-22T04:13:01;14.50;99.90
21772;DHT22;11047;47.904;8.110;2023-06-22T04:15:28;14.60;99.90
21772;DHT22;11047;47.904;8.110;2023-06-22T04:17:57;14.70;99.90
21772;DHT22;11047;47.904;8.110;2023-06-22T04:20:24;14.70;99.90
21772;DHT22;11047;47.904;8.110;2023-06-22T04:22:52;14.80;99.90
21772;DHT22;11047;47.904;8.110;2023-06-22T04:25:19;14.70;99.90
21772;DHT22;11047;47.904;8.110;2023-06-22T04:27:46;14.80;99.90
21772;DHT22;11047;47.904;8.110;2023-06-22T04:30:13;14.90;99.90
21772;DHT22;11047;47.904;8.110;2023-06-22T04:32:41;14.80;99.90
21772;DHT22;11047;47.904;8.110;2023-06-22T04:35:10;14.90;99.90
21772;DHT22;11047;47.904;8.110;2023-06-22T04:37:37;14.90;99.90
21772;DHT22;11047;47.904;8.110;2023-06-22T04:40:05;15.00;99.90
21772;DHT22;11047;47.904;8.110;2023-06-22T04:42:34;15.10;99.90
21772;DHT22;11047;47.904;8.110;2023-06-22T04:45:01;15.20;99.90
21772;DHT22;11047;47.904;8.110;2023-06-22T04:47:28;15.20;99.90
21772;DHT22;11047;47.904;8.110;2023-06-22T04:49:55;15.20;99.90
21772;DHT22;11047;47.904;8.110;2023-06-22T04:52:23;15.30;99.90
21772;DHT22;11047;47.904;8.110;2023-06-22T04:54:50;15.30;99.90
21772;DHT22;11047;47.904;8.110;2023-06-22T04:57:21;15.40;99.90
21772;DHT22;11047;47.904;8.110;2023-06-22T04:59:58;15.50;99.90
21772;DHT22;11047;47.904;8.110;2023-06-22T05:02:27;15.50;99.90
21772;DHT22;11047;47.904;8.110;2023-06-22T05:04:57;15.60;99.90
21772;DHT22;11047;47.904;8.110;2023-06-22T05:07:26;15.70;99.90
21772;DHT22;11047;47.904;8.110;2023-06-22T05:09:53;15.70;99.90
21772;DHT22;11047;47.904;8.110;2023-06-22T05:12:20;15.80;99.90
21772;DHT22;11047;47.904;8.110;2023-06-22T05:14:47;15.90;99.90
21772;DHT22;11047;47.904;8.110;2023-06-22T05:17:14;15.90;99.90
21772;DHT22;11047;47.904;8.110;2023-06-22T05:19:44;15.90;99.90
21772;DHT22;11047;47.904;8.110;2023-06-22T05:22:14;16.00;99.90
21772;DHT22;11047;47.904;8.110;2023-06-22T05:24:42;16.10;99.90
21772;DHT22;11047;47.904;8.110;2023-06-22T05:27:09;16.10;99.90
21772;DHT22;11047;47.904;8.110;2023-06-22T05:29:36;16.20;99.90
21772;DHT22;11047;47.904;8.110;2023-06-22T05:32:04;16.30;99.90
21772;DHT22;11047;47.904;8.110;2023-06-22T05:34:31;16.40;99.90
21772;DHT22;11047;47.904;8.110;2023-06-22T05:36:58;16.40;99.90
21772;DHT22;11047;47.904;8.110;2023-06-22T05:39:25;16.50;99.90
21772;DHT22;11047;47.904;8.110;2023-06-22T05:41:54;16.60;99.90
21772;DHT22;11047;47.904;8.110;2023-06-22T05:44:21;16.70;99.90
21772;DHT22;11047;47.904;8.110;2023-06-22T05:46:48;16.80;99.90
21772;DHT22;11047;47.904;8.110;2023-06-22T05:49:15;16.90;99.90
21772;DHT22;11047;47.904;8.110;2023-06-22T05:51:42;17.00;99.90
21772;DHT22;11047;47.904;8.110;2023-06-22T05:54:09;17.10;99.90
21772;DHT22;11047;47.904;8.110;2023-06-22T05:56:39;17.10;99.90
21772;DHT22;11047;47.904;8.110;2023-06-22T05:59:07;17.20;99.90
21772;DHT22;11047;47.904;8.110;2023-06-22T06:01:34;17.30;99.90
21772;DHT22;11047;47.904;8.110;2023-06-22T06:04:02;17.40;99.90
21772;DHT22;11047;47.904;8.110;2023-06-22T06:06:29;17.40;99.90
21772;DHT22;11047;47.904;8.110;2023-06-22T06:08:56;17.60;99.90
21772;DHT22;11047;47.904;8.110;2023-06-22T06:11:24;17.70;99.90
21772;DHT22;11047;47.904;8.110;2023-06-22T06:13:51;17.70;99.90
21772;DHT22;11047;47.904;8.110;2023-06-22T06:16:19;17.80;99.90
21772;DHT22;11047;47.904;8.110;2023-06-22T06:18:46;17.90;99.90
21772;DHT22;11047;47.904;8.110;2023-06-22T06:21:15;18.10;99.90
21772;DHT22;11047;47.904;8.110;2023-06-22T06:23:42;18.10;99.90
21772;DHT22;11047;47.904;8.110;2023-06-22T06:26:09;18.30;99.90
21772;DHT22;11047;47.904;8.110;2023-06-22T06:28:36;18.40;99.90
21772;DHT22;11047;47.904;8.110;2023-06-22T06:31:03;18.50;99.90
21772;DHT22;11047;47.904;8.110;2023-06-22T06:33:35;18.60;99.90
21772;DHT22;11047;47.904;8.110;2023-06-22T06:36:02;18.80;99.90
21772;DHT22;11047;47.904;8.110;2023-06-22T06:38:30;18.90;99.90
21772;DHT22;11047;47.904;8.110;2023-06-22T06:40:57;19.10;99.90
21772;DHT22;11047;47.904;8.110;2023-06-22T06:43:25;19.10;99.90
21772;DHT22;11047;47.904;8.110;2023-06-22T06:45:52;19.20;99.90
21772;DHT22;11047;47.904;8.110;2023-06-22T06:48:19;19.20;99.90
21772;DHT22;11047;47.904;8.110;2023-06-22T06:50:47;19.40;99.90
21772;DHT22;11047;47.904;8.110;2023-06-22T06:53:14;19.70;99.90
21772;DHT22;11047;47.904;8.110;2023-06-22T06:55:41;19.90;99.90
21772;DHT22;11047;47.904;8.110;2023-06-22T06:58:09;20.10;99.90
21772;DHT22;11047;47.904;8.110;2023-06-22T07:00:38;20.10;99.90
21772;DHT22;11047;47.904;8.110;2023-06-22T07:03:05;20.20;99.90
21772;DHT22;11047;47.904;8.110;2023-06-22T07:05:32;20.30;99.90
21772;DHT22;11047;47.904;8.110;2023-06-22T07:08:01;20.30;99.90
21772;DHT22;11047;47.904;8.110;2023-06-22T07:10:28;20.30;99.90
21772;DHT22;11047;47.904;8.110;2023-06-22T07:12:55;20.30;99.90
21772;DHT22;11047;47.904;8.110;2023-06-22T07:15:23;20.30;99.90
21772;DHT22;11047;47.904;8.110;2023-06-22T07:17:50;20.30;99.90
21772;DHT22;11047;47.904;8.110;2023-06-22T07:20:17;20.40;99.90
21772;DHT22;11047;47.904;8.110;2023-06-22T07:22:45;20.50;99.90
21772;DHT22;11047;47.904;8.110;2023-06-22T07:25:14;20.50;99.90
21772;DHT22;11047;47.904;8.110;2023-06-22T07:27:45;20.60;99.90
21772;DHT22;11047;47.904;8.110;2023-06-22T07:30:13;20.60;99.90
21772;DHT22;11047;47.904;8.110;2023-06-22T07:32:41;20.70;99.90
21772;DHT22;11047;47.904;8.110;2023-06-22T07:35:08;20.70;99.90
21772;DHT22;11047;47.904;8.110;2023-06-22T07:37:36;20.80;99.90
21772;DHT22;11047;47.904;8.110;2023-06-22T07:40:03;21.00;99.90
21772;DHT22;11047;47.904;8.110;2023-06-22T07:42:33;21.10;99.90
21772;DHT22;11047;47.904;8.110;2023-06-22T07:45:00;21.50;99.90
21772;DHT22;11047;47.904;8.110;2023-06-22T07:47:28;21.80;99.90
21772;DHT22;11047;47.904;8.110;2023-06-22T07:49:55;22.10;99.90
21772;DHT22;11047;47.904;8.110;2023-06-22T07:52:23;22.30;99.90
21772;DHT22;11047;47.904;8.110;2023-06-22T07:54:51;22.40;99.90
21772;DHT22;11047;47.904;8.110;2023-06-22T07:57:18;22.40;99.90
21772;DHT22;11047;47.904;8.110;2023-06-22T07:59:46;22.60;99.90
21772;DHT22;11047;47.904;8.110;2023-06-22T08:02:13;23.00;99.90
21772;DHT22;11047;47.904;8.110;2023-06-22T08:04:41;23.40;99.90
21772;DHT22;11047;47.904;8.110;2023-06-22T08:07:08;23.80;99.90
21772;DHT22;11047;47.904;8.110;2023-06-22T08:09:36;23.90;99.90
21772;DHT22;11047;47.904;8.110;2023-06-22T08:12:03;24.00;99.90
21772;DHT22;11047;47.904;8.110;2023-06-22T08:14:30;24.20;99.90
21772;DHT22;11047;47.904;8.110;2023-06-22T08:16:58;24.40;99.90
21772;DHT22;11047;47.904;8.110;2023-06-22T08:19:25;24.70;99.90
21772;DHT22;11047;47.904;8.110;2023-06-22T08:21:52;25.10;99.90
21772;DHT22;11047;47.904;8.110;2023-06-22T08:24:19;25.40;99.90
21772;DHT22;11047;47.904;8.110;2023-06-22T08:26:46;25.50;99.90
21772;DHT22;11047;47.904;8.110;2023-06-22T08:29:13;25.80;99.90
21772;DHT22;11047;47.904;8.110;2023-06-22T08:31:40;25.90;99.90
21772;DHT22;11047;47.904;8.110;2023-06-22T08:34:08;26.20;99.90
21772;DHT22;11047;47.904;8.110;2023-06-22T08:36:35;26.50;99.90
21772;DHT22;11047;47.904;8.110;2023-06-22T08:39:08;27.00;99.90
21772;DHT22;11047;47.904;8.110;2023-06-22T08:41:35;27.20;99.90
21772;DHT22;11047;47.904;8.110;2023-06-22T08:44:02;27.20;99.90
21772;DHT22;11047;47.904;8.110;2023-06-22T08:46:29;27.10;99.90
21772;DHT22;11047;47.904;8.110;2023-06-22T08:48:59;27.00;99.90
21772;DHT22;11047;47.904;8.110;2023-06-22T08:51:27;26.90;99.90
21772;DHT22;11047;47.904;8.110;2023-06-22T08:53:54;26.70;99.90
21772;DHT22;11047;47.904;8.110;2023-06-22T08:56:21;27.10;99.90
21772;DHT22;11047;47.904;8.110;2023-06-22T08:58:48;27.30;99.90
21772;DHT22;11047;47.904;8.110;2023-06-22T09:01:15;27.50;99.90
21772;DHT22;11047;47.904;8.110;2023-06-22T09:03:42;27.70;99.90
21772;DHT22;11047;47.904;8.110;2023-06-22T09:06:09;28.20;99.90
21772;DHT22;11047;47.904;8.110;2023-06-22T09:08:37;28.70;99.90
21772;DHT22;11047;47.904;8.110;2023-06-22T09:11:04;29.00;99.90
21772;DHT22;11047;47.904;8.110;2023-06-22T09:13:32;29.20;99.90
21772;DHT22;11047;47.904;8.110;2023-06-22T09:15:59;29.30;99.90
21772;DHT22;11047;47.904;8.110;2023-06-22T09:18:26;29.50;99.90
21772;DHT22;11047;47.904;8.110;2023-06-22T09:20:53;29.90;99.90
21772;DHT22;11047;47.904;8.110;2023-06-22T09:23:20;30.30;99.90
21772;DHT22;11047;47.904;8.110;2023-06-22T09:25:48;30.20;99.90
21772;DHT22;11047;47.904;8.110;2023-06-22T09:28:15;30.20;99.90
21772;DHT22;11047;47.904;8.110;2023-06-22T09:30:43;30.00;99.90
21772;DHT22;11047;47.904;8.110;2023-06-22T09:33:10;30.10;99.90
21772;DHT22;11047;47.904;8.110;2023-06-22T09:35:37;30.20;99.90
21772;DHT22;11047;47.904;8.110;2023-06-22T09:38:04;30.40;99.90
21772;DHT22;11047;47.904;8.110;2023-06-22T09:40:31;30.60;99.90
21772;DHT22;11047;47.904;8.110;2023-06-22T09:43:02;30.60;99.90
21772;DHT22;11047;47.904;8.110;2023-06-22T09:45:29;30.70;99.90
21772;DHT22;11047;47.904;8.110;2023-06-22T09:47:56;30.80;99.90
21772;DHT22;11047;47.904;8.110;2023-06-22T09:50:23;31.00;99.90
21772;DHT22;11047;47.904;8.110;2023-06-22T09:52:50;30.90;99.90
21772;DHT22;11047;47.904;8.110;2023-06-22T09:55:20;30.50;99.90
21772;DHT22;11047;47.904;8.110;2023-06-22T09:57:47;30.40;99.90
21772;DHT22;11047;47.904;8.110;2023-06-22T10:00:17;30.30;99.90
21772;DHT22;11047;47.904;8.110;2023-06-22T10:02:46;30.20;99.90
21772;DHT22;11047;47.904;8.110;2023-06-22T10:05:13;30.10;99.90
21772;DHT22;11047;47.904;8.110;2023-06-22T10:07:40;30.20;99.90
21772;DHT22;11047;47.904;8.110;2023-06-22T10:10:09;30.30;99.90
21772;DHT22;11047;47.904;8.110;2023-06-22T10:12:40;30.30;99.90
21772;DHT22;11047;47.904;8.110;2023-06-22T10:15:08;30.50;99.90
21772;DHT22;11047;47.904;8.110;2023-06-22T10:17:36;30.20;99.90
21772;DHT22;11047;47.904;8.110;2023-06-22T10:20:04;29.90;99.90
21772;DHT22;11047;47.904;8.110;2023-06-22T10:22:37;29.70;99.90
21772;DHT22;11047;47.904;8.110;2023-06-22T10:25:04;29.60;99.90
21772;DHT22;11047;47.904;8.110;2023-06-22T10:27:32;29.40;99.90
21772;DHT22;11047;47.904;8.110;2023-06-22T10:29:59;29.30;99.90
21772;DHT22;11047;47.904;8.110;2023-06-22T10:32:26;29.50;99.90
21772;DHT22;11047;47.904;8.110;2023-06-22T10:34:55;29.70;99.90
21772;DHT22;11047;47.904;8.110;2023-06-22T10:37:22;29.60;99.90
21772;DHT22;11047;47.904;8.110;2023-06-22T10:39:49;29.90;99.90
21772;DHT22;11047;47.904;8.110;2023-06-22T10:42:16;30.00;99.90
21772;DHT22;11047;47.904;8.110;2023-06-22T10:44:43;30.30;99.90
21772;DHT22;11047;47.904;8.110;2023-06-22T10:47:10;30.40;99.90
21772;DHT22;11047;47.904;8.110;2023-06-22T10:49:38;30.30;99.90
21772;DHT22;11047;47.904;8.110;2023-06-22T10:52:07;30.40;99.90
21772;DHT22;11047;47.904;8.110;2023-06-22T10:54:35;30.50;99.90
21772;DHT22;11047;47.904;8.110;2023-06-22T10:57:02;30.50;99.90
21772;DHT22;11047;47.904;8.110;2023-06-22T10:59:29;30.40;99.90
21772;DHT22;11047;47.904;8.110;2023-06-22T11:01:56;30.30;99.90
21772;DHT22;11047;47.904;8.110;2023-06-22T11:04:24;30.30;99.90
21772;DHT22;11047;47.904;8.110;2023-06-22T11:06:51;30.20;99.90
21772;DHT22;11047;47.904;8.110;2023-06-22T11:09:20;29.90;99.90
21772;DHT22;11047;47.904;8.110;2023-06-22T11:11:47;29.60;99.90
21772;DHT22;11047;47.904;8.110;2023-06-22T11:14:14;29.50;99.90
21772;DHT22;11047;47.904;8.110;2023-06-22T11:16:41;29.50;99.90
21772;DHT22;11047;47.904;8.110;2023-06-22T11:19:08;29.20;99.90
21772;DHT22;11047;47.904;8.110;2023-06-22T11:21:35;29.20;99.90
21772;DHT22;11047;47.904;8.110;2023-06-22T11:24:02;28.90;99.90
21772;DHT22;11047;47.904;8.110;2023-06-22T11:26:30;28.80;99.90
21772;DHT22;11047;47.904;8.110;2023-06-22T11:28:58;28.90;99.90
21772;DHT22;11047;47.904;8.110;2023-06-22T11:31:25;28.70;99.90
21772;DHT22;11047;47.904;8.110;2023-06-22T11:33:52;28.70;99.90
21772;DHT22;11047;47.904;8.110;2023-06-22T11:36:19;28.80;99.90
21772;DHT22;11047;47.904;8.110;2023-06-22T11:38:46;28.80;99.90
21772;DHT22;11047;47.904;8.110;2023-06-22T11:41:14;28.70;99.90
21772;DHT22;11047;47.904;8.110;2023-06-22T11:43:42;28.50;99.90
21772;DHT22;11047;47.904;8.110;2023-06-22T11:46:09;28.40;99.90
21772;DHT22;11047;47.904;8.110;2023-06-22T11:48:36;28.20;99.90
21772;DHT22;11047;47.904;8.110;2023-06-22T11:51:04;28.10;99.90
21772;DHT22;11047;47.904;8.110;2023-06-22T11:53:32;28.00;99.90
21772;DHT22;11047;47.904;8.110;2023-06-22T11:56:00;28.00;99.90
21772;DHT22;11047;47.904;8.110;2023-06-22T11:58:27;27.90;99.90
21772;DHT22;11047;47.904;8.110;2023-06-22T12:00:55;28.10;99.90
21772;DHT22;11047;47.904;8.110;2023-06-22T12:03:22;28.20;99.90
21772;DHT22;11047;47.904;8.110;2023-06-22T12:05:49;28.10;99.90
21772;DHT22;11047;47.904;8.110;2023-06-22T12:08:16;28.10;99.90
21772;DHT22;11047;47.904;8.110;2023-06-22T12:10:44;27.80;99.90
21772;DHT22;11047;47.904;8.110;2023-06-22T12:13:11;27.80;99.90
21772;DHT22;11047;47.904;8.110;2023-06-22T12:15:38;27.80;99.90
21772;DHT22;11047;47.904;8.110;2023-06-22T12:18:06;27.60;99.90
21772;DHT22;11047;47.904;8.110;2023-06-22T12:20:34;27.60;99.90
21772;DHT22;11047;47.904;8.110;2023-06-22T12:23:01;27.40;99.90
21772;DHT22;11047;47.904;8.110;2023-06-22T12:25:28;27.30;99.90
21772;DHT22;11047;47.904;8.110;2023-06-22T12:27:55;27.40;99.90
21772;DHT22;11047;47.904;8.110;2023-06-22T12:30:22;27.20;99.90
21772;DHT22;11047;47.904;8.110;2023-06-22T12:32:49;27.20;99.90
21772;DHT22;11047;47.904;8.110;2023-06-22T12:35:18;27.20;99.90
21772;DHT22;11047;47.904;8.110;2023-06-22T12:37:45;27.20;99.90
21772;DHT22;11047;47.904;8.110;2023-06-22T12:40:12;27.00;99.90
21772;DHT22;11047;47.904;8.110;2023-06-22T12:42:39;27.10;99.90
21772;DHT22;11047;47.904;8.110;2023-06-22T12:45:08;27.10;99.90
21772;DHT22;11047;47.904;8.110;2023-06-22T12:47:35;27.30;99.90
21772;DHT22;11047;47.904;8.110;2023-06-22T12:50:02;27.40;99.90
21772;DHT22;11047;47.904;8.110;2023-06-22T12:52:31;27.50;99.90
21772;DHT22;11047;47.904;8.110;2023-06-22T12:54:58;27.60;99.90
21772;DHT22;11047;47.904;8.110;2023-06-22T12:57:26;27.40;99.90
21772;DHT22;11047;47.904;8.110;2023-06-22T12:59:53;27.20;99.90
21772;DHT22;11047;47.904;8.110;2023-06-22T13:02:20;27.10;99.90
21772;DHT22;11047;47.904;8.110;2023-06-22T13:04:47;27.30;99.90
21772;DHT22;11047;47.904;8.110;2023-06-22T13:07:13;27.30;99.90
21772;DHT22;11047;47.904;8.110;2023-06-22T13:09:42;27.20;99.90
21772;DHT22;11047;47.904;8.110;2023-06-22T13:12:10;26.90;99.90
21772;DHT22;11047;47.904;8.110;2023-06-22T13:14:37;26.80;99.90
21772;DHT22;11047;47.904;8.110;2023-06-22T13:17:05;26.80;99.90
21772;DHT22;11047;47.904;8.110;2023-06-22T13:19:34;26.70;99.90
21772;DHT22;11047;47.904;8.110;2023-06-22T13:22:00;26.80;99.90
21772;DHT22;11047;47.904;8.110;2023-06-22T13:24:29;26.70;99.90
21772;DHT22;11047;47.904;8.110;2023-06-22T13:26:57;26.90;99.90
21772;DHT22;11047;47.904;8.110;2023-06-22T13:29:24;27.00;99.90
21772;DHT22;11047;47.904;8.110;2023-06-22T13:31:51;27.20;99.90
21772;DHT22;11047;47.904;8.110;2023-06-22T13:34:18;27.30;99.90
21772;DHT22;11047;47.904;8.110;2023-06-22T13:36:44;27.30;99.90
21772;DHT22;11047;47.904;8.110;2023-06-22T13:39:12;27.20;99.90
21772;DHT22;11047;47.904;8.110;2023-06-22T13:41:39;27.30;99.90
21772;DHT22;11047;47.904;8.110;2023-06-22T13:44:07;27.10;99.90
21772;DHT22;11047;47.904;8.110;2023-06-22T13:46:34;27.00;99.90
21772;DHT22;11047;47.904;8.110;2023-06-22T13:49:01;26.70;99.90
21772;DHT22;11047;47.904;8.110;2023-06-22T13:51:28;26.30;99.90
21772;DHT22;11047;47.904;8.110;2023-06-22T13:53:55;26.20;99.90
21772;DHT22;11047;47.904;8.110;2023-06-22T13:56:21;25.80;99.90
21772;DHT22;11047;47.904;8.110;2023-06-22T13:58:48;25.90;99.90
21772;DHT22;11047;47.904;8.110;2023-06-22T14:01:27;25.70;99.90
21772;DHT22;11047;47.904;8.110;2023-06-22T14:03:54;25.80;99.90
21772;DHT22;11047;47.904;8.110;2023-06-22T14:06:32;25.70;99.90
21772;DHT22;11047;47.904;8.110;2023-06-22T14:09:15;25.80;99.90
21772;DHT22;11047;47.904;8.110;2023-06-22T14:11:42;25.60;99.90
21772;DHT22;11047;47.904;8.110;2023-06-22T14:14:09;25.50;99.90
21772;DHT22;11047;47.904;8.110;2023-06-22T14:16:37;25.30;99.90
21772;DHT22;11047;47.904;8.110;2023-06-22T14:19:04;25.20;99.90
21772;DHT22;11047;47.904;8.110;2023-06-22T14:21:31;25.30;99.90
21772;DHT22;11047;47.904;8.110;2023-06-22T14:23:58;25.30;99.90
21772;DHT22;11047;47.904;8.110;2023-06-22T14:26:25;25.20;99.90
21772;DHT22;11047;47.904;8.110;2023-06-22T14:28:52;25.20;99.90
21772;DHT22;11047;47.904;8.110;2023-06-22T14:31:19;25.20;99.90
21772;DHT22;11047;47.904;8.110;2023-06-22T14:34:14;25.20;99.90
21772;DHT22;11047;47.904;8.110;2023-06-22T14:37:04;25.10;99.90
21772;DHT22;11047;47.904;8.110;2023-06-22T14:39:49;24.90;99.90
21772;DHT22;11047;47.904;8.110;2023-06-22T14:42:31;24.70;99.90
21772;DHT22;11047;47.904;8.110;2023-06-22T14:45:01;24.70;99.90
21772;DHT22;11047;47.904;8.110;2023-06-22T14:47:28;24.60;99.90
21772;DHT22;11047;47.904;8.110;2023-06-22T14:50:15;24.60;99.90
21772;DHT22;11047;47.904;8.110;2023-06-22T14:52:55;24.70;99.90
21772;DHT22;11047;47.904;8.110;2023-06-22T14:55:30;24.60;99.90
21772;DHT22;11047;47.904;8.110;2023-06-22T14:57:59;24.50;99.90
21772;DHT22;11047;47.904;8.110;2023-06-22T15:00:26;24.50;99.90
21772;DHT22;11047;47.904;8.110;2023-06-22T15:02:53;24.40;99.90
21772;DHT22;11047;47.904;8.110;2023-06-22T15:05:21;24.10;99.90
21772;DHT22;11047;47.904;8.110;2023-06-22T15:07:49;23.90;99.90
21772;DHT22;11047;47.904;8.110;2023-06-22T15:10:16;23.70;99.90
21772;DHT22;11047;47.904;8.110;2023-06-22T15:12:55;23.70;99.90
21772;DHT22;11047;47.904;8.110;2023-06-22T15:15:22;23.60;99.90
21772;DHT22;11047;47.904;8.110;2023-06-22T15:17:49;23.50;99.90
21772;DHT22;11047;47.904;8.110;2023-06-22T15:20:16;23.10;99.90
21772;DHT22;11047;47.904;8.110;2023-06-22T15:22:44;22.90;99.90
21772;DHT22;11047;47.904;8.110;2023-06-22T15:25:11;22.80;99.90
21772;DHT22;11047;47.904;8.110;2023-06-22T15:27:38;22.70;99.90
21772;DHT22;11047;47.904;8.110;2023-06-22T15:30:06;22.40;99.90
21772;DHT22;11047;47.904;8.110;2023-06-22T15:32:33;22.20;99.90
21772;DHT22;11047;47.904;8.110;2023-06-22T15:35:00;21.70;99.90
21772;DHT22;11047;47.904;8.110;2023-06-22T15:37:27;21.30;99.90